Latest Weather Observations for Broome Port

IDW60801

Issued at 5:35 pm WST Friday 28 November 2014 (issued every 30 minutes, with the page automatically refreshed every 10 minutes)

About weather observations | Map of weather stations | Latest weather observations for WA | Other Formats
Station Details ID: 003102 Name: BROOME NTC AWS Lat: -18.00 Lon: 122.22 Height: 0.0 m
Data from the previous 72 hours. | See also: Recent months for locations in Western Australia
Date/Time
WST
Temp
°C
App
Temp
°C
Dew
Point
Rel
Hum
%
Delta-T
°C
Wind Press
QNH
hPa
Press
MSL
hPa
Rain
since 9 am
mm
Dir
 
Spd
km/h
Gust
km/h
Spd
kts
Gust
kts
28/05:30pm 30.6 - - - - NW 28 33 15 18 1005.4 1005.3 -
28/05:00pm 30.6 - - - - NW 26 32 14 17 1005.4 1005.3 -
28/04:30pm 30.7 - - - - NW 28 32 15 17 1005.3 1005.2 -
28/04:00pm 30.7 - - - - NW 30 37 16 20 1005.0 1004.9 -
28/03:30pm 30.5 - - - - NW 30 37 16 20 1004.8 1004.7 -
28/03:00pm 30.4 - - - - NW 30 35 16 19 1004.9 1004.8 -
28/02:30pm 30.6 - - - - NW 33 37 18 20 1005.3 1005.2 -
28/02:00pm 30.6 - - - - WNW 30 37 16 20 1005.4 1005.3 -
28/01:30pm 30.5 - - - - WNW 30 33 16 18 1005.9 1005.8 -
28/01:00pm 30.5 - - - - WNW 26 32 14 17 1006.4 1006.3 -
28/12:30pm 30.4 - - - - WNW 24 28 13 15 1007.0 1006.9 -
28/12:00pm 30.4 - - - - W 22 26 12 14 1007.6 1007.5 -
28/11:30am 30.4 - - - - W 19 22 10 12 1008.1 1008.0 -
28/11:00am 30.5 - - - - W 13 19 7 10 1008.5 1008.4 -
28/10:30am 30.1 - - - - SW 11 15 6 8 1008.9 1008.8 -
28/10:00am 30.1 - - - - SSW 6 9 3 5 1009.4 1009.3 -
28/09:30am 29.8 - - - - S 4 6 2 3 1009.8 1009.7 -
28/09:00am - - - - - SE 6 9 3 5 1010.0 1009.9 -
28/08:30am - - - - - ESE 11 13 6 7 1010.2 1010.1 -
28/08:00am - - - - - SE 13 17 7 9 1010.3 1010.2 -
28/07:30am - - - - - SSE 15 19 8 10 1010.1 1010.0 -
28/07:00am - - - - - S 19 20 10 11 1009.8 1009.7 -
28/06:30am - - - - - WSW 11 13 6 7 1009.3 1009.2 -
28/06:00am - - - - - NW 2 6 1 3 1009.0 1008.9 -
28/05:30am - - - - - WNW 6 9 3 5 1008.3 1008.2 -
28/05:00am - - - - - NW 6 7 3 4 1007.8 1007.7 -
28/04:30am - - - - - NW 2 6 1 3 1007.7 1007.6 -
28/04:00am - - - - - N 13 17 7 9 1007.3 1007.2 -
28/03:30am - - - - - N 9 11 5 6 1006.9 1006.8 -
28/03:00am - - - - - NNE 13 17 7 9 1006.6 1006.5 -
28/02:30am - - - - - NE 17 22 9 12 1006.8 1006.7 -
28/02:00am - - - - - ENE 17 24 9 13 1006.9 1006.8 -
28/01:30am - - - - - ENE 19 22 10 12 1007.1 1007.0 -
28/01:00am - - - - - E 24 28 13 15 1007.3 1007.2 -
28/12:30am - - - - - E 22 26 12 14 1007.6 1007.5 -
28/12:00am - - - - - E 20 22 11 12 1007.7 1007.6 -
 
Date/Time
WST
Temp
°C
App
Temp
°C
Dew
Point
Rel
Hum
%
Delta-T
°C
Wind Press
QNH
hPa
Press
MSL
hPa
Rain
since 9 am
mm
Dir
 
Spd
km/h
Gust
km/h
Spd
kts
Gust
kts
27/11:30pm - - - - - E 24 32 13 17 1008.2 1008.1 -
27/11:00pm - - - - - E 20 26 11 14 1008.5 1008.4 -
27/10:30pm - - - - - E 15 19 8 10 1008.3 1008.2 -
27/10:00pm - - - - - ENE 13 17 7 9 1008.6 1008.5 -
27/09:30pm - - - - - ENE 20 26 11 14 1008.7 1008.6 -
27/09:00pm - - - - - ENE 13 17 7 9 1008.5 1008.4 -
27/08:30pm - - - - - ENE 13 17 7 9 1008.2 1008.1 -
27/08:00pm - - - - - ENE 22 24 12 13 1007.9 1007.8 -
27/07:30pm - - - - - NE 17 20 9 11 1007.7 1007.6 -
27/07:00pm - - - - - NE 13 15 7 8 1007.3 1007.2 -
27/06:30pm - - - - - ENE 7 11 4 6 1007.1 1007.0 -
27/06:00pm - - - - - NNE 6 7 3 4 1006.6 1006.5 -
27/05:30pm - - - - - NE 13 17 7 9 1006.9 1006.8 -
27/05:00pm - - - - - ESE 24 28 13 15 1007.5 1007.4 -
27/04:30pm - - - - - ESE 37 43 20 23 1007.8 1007.7 -
27/04:00pm - - - - - ESE 48 56 26 30 1008.1 1008.0 -
27/03:51pm - - - - - ESE 44 52 24 28 1007.9 1007.8 -
27/03:30pm - - - - - - 2 - 1 - 1006.8 1006.7 -
27/03:00pm - - - - - WNW 22 26 12 14 1006.1 1006.0 -
27/02:30pm - - - - - WNW 20 28 11 15 1006.0 1005.9 -
27/02:00pm - - - - - WNW 24 32 13 17 1006.1 1006.0 -
27/01:30pm - - - - - WNW 24 30 13 16 1006.7 1006.6 -
27/01:00pm - - - - - WNW 22 30 12 16 1006.3 1006.2 -
27/12:30pm - - - - - WNW 22 28 12 15 1006.8 1006.7 -
27/12:00pm - - - - - W 19 22 10 12 1007.2 1007.1 -
27/11:30am - - - - - WNW 17 22 9 12 1007.4 1007.3 -
27/11:00am - - - - - WSW 13 17 7 9 1008.0 1007.9 -
27/10:30am - - - - - SW 13 17 7 9 1008.5 1008.4 -
27/10:00am - - - - - WSW 13 17 7 9 1008.6 1008.5 -
27/09:30am - - - - - W 15 19 8 10 1008.4 1008.3 -
27/09:00am - - - - - W 13 19 7 10 1008.4 1008.3 -
27/08:30am - - - - - W 13 17 7 9 1008.5 1008.4 -
27/08:00am - - - - - WNW 13 19 7 10 1008.1 1008.0 -
27/07:30am - - - - - WNW 11 15 6 8 1007.9 1007.8 -
27/07:00am - - - - - W 9 13 5 7 1007.9 1007.8 -
27/06:30am - - - - - NNW 7 11 4 6 1007.8 1007.7 -
27/06:00am - - - - - N 9 9 5 5 1007.7 1007.6 -
27/05:30am - - - - - N 9 11 5 6 1007.5 1007.4 -
27/05:00am - - - - - WNW 6 7 3 4 1007.4 1007.3 -
27/04:30am - - - - - W 11 15 6 8 1006.8 1006.7 -
27/04:00am - - - - - W 13 19 7 10 1006.7 1006.6 -
27/03:30am - - - - - W 15 20 8 11 1006.5 1006.4 -
27/03:00am - - - - - W 20 24 11 13 1006.4 1006.3 -
27/02:30am - - - - - W 15 20 8 11 1006.2 1006.1 -
27/02:00am - - - - - W 13 19 7 10 1006.1 1006.0 -
27/01:30am - - - - - W 17 22 9 12 1005.8 1005.7 -
27/01:00am - - - - - WNW 17 22 9 12 1005.6 1005.5 -
27/12:30am - - - - - NW 15 20 8 11 1005.7 1005.6 -
27/12:00am - - - - - NW 17 20 9 11 1005.8 1005.7 -
 
Date/Time
WST
Temp
°C
App
Temp
°C
Dew
Point
Rel
Hum
%
Delta-T
°C
Wind Press
QNH
hPa
Press
MSL
hPa
Rain
since 9 am
mm
Dir
 
Spd
km/h
Gust
km/h
Spd
kts
Gust
kts
26/11:30pm - - - - - NW 19 24 10 13 1006.0 1005.9 -
26/11:00pm - - - - - NNW 20 26 11 14 1006.2 1006.1 -
26/10:30pm - - - - - NNW 22 28 12 15 1006.4 1006.3 -
26/10:00pm - - - - - N 28 35 15 19 1006.4 1006.3 -
26/09:30pm - - - - - NNW 28 37 15 20 1006.2 1006.1 -
26/09:00pm - - - - - N 20 28 11 15 1006.6 1006.5 -
26/08:30pm - - - - - N 22 30 12 16 1006.0 1005.9 -
26/08:00pm - - - - - NNW 24 32 13 17 1005.3 1005.2 -
26/07:30pm - - - - - N 28 43 15 23 1004.9 1004.8 -
26/07:00pm - - - - - N 26 35 14 19 1004.3 1004.2 -
26/06:30pm - - - - - WSW 22 26 12 14 1003.3 1003.2 -
26/06:00pm - - - - - WSW 22 26 12 14 1002.8 1002.7 -
26/05:30pm 31.6 - - - - W 24 28 13 15 1002.3 1002.2 -
26/05:00pm 32.3 - - - - WSW 24 33 13 18 1002.0 1001.9 -
26/04:58pm 32.5 - - - - WSW 22 33 12 18 1002.0 1001.9 -
26/04:30pm 37.5 - - - - SW 11 15 6 8 1001.9 1001.8 -
26/04:00pm 38.0 - - - - SW 9 9 5 5 1002.0 1001.9 -
26/03:30pm 38.0 - - - - SW 6 7 3 4 1002.3 1002.2 -
26/03:00pm 38.3 - - - - SW 2 4 1 2 1002.7 1002.6 -
26/02:30pm 36.3 - - - - CALM 0 2 0 1 1003.1 1003.0 -
26/02:00pm 35.7 - - - - ESE 7 9 4 5 1003.3 1003.2 -
26/01:30pm 35.2 - - - - ESE 19 20 10 11 1003.6 1003.5 -
26/01:00pm 34.9 - - - - ESE 17 19 9 10 1004.0 1003.9 -
26/12:30pm 34.3 - - - - SE 13 17 7 9 1004.7 1004.6 -
26/12:00pm 33.7 - - - - ESE 17 22 9 12 1005.3 1005.2 -
26/11:30am 33.3 - - - - ESE 24 28 13 15 1005.8 1005.7 -
26/11:00am 32.8 - - - - ESE 30 35 16 19 1006.5 1006.4 -
26/10:30am 32.4 - - - - SE 33 37 18 20 1007.1 1007.0 -
26/10:00am 31.8 - - - - SE 37 44 20 24 1007.7 1007.6 -
26/09:30am 31.1 - - - - SSE 39 48 21 26 1008.2 1008.1 -
26/09:00am 30.5 - - - - SSE 39 46 21 25 1009.0 1008.9 -
26/08:30am 30.2 - - - - SSE 41 48 22 26 1009.2 1009.1 -
26/08:00am 29.5 - - - - SE 37 43 20 23 1009.3 1009.2 -
26/07:30am 28.5 - - - - SE 39 44 21 24 1009.1 1009.0 -
26/07:00am 28.7 - - - - SSE 33 43 18 23 1008.9 1008.8 -
26/06:30am 28.0 - - - - S 32 37 17 20 1008.7 1008.6 -
26/06:00am 28.4 - - - - S 37 44 20 24 1008.6 1008.5 -
26/05:30am 28.7 - - - - SSW 35 41 19 22 1007.9 1007.8 -
26/05:00am 28.6 - - - - SSW 28 35 15 19 1007.3 1007.2 -
26/04:30am 29.1 - - - - S 22 26 12 14 1006.6 1006.5 -
26/04:00am 29.1 - - - - S 22 30 12 16 1006.5 1006.4 -
26/03:30am 29.4 - - - - SSE 28 35 15 19 1006.8 1006.7 -
26/03:00am 29.3 - - - - SSE 15 19 8 10 1006.3 1006.2 -
26/02:30am 29.4 - - - - SE 17 20 9 11 1006.6 1006.5 -
26/02:00am 29.4 - - - - SSE 19 22 10 12 1006.7 1006.6 -
26/01:30am 29.6 - - - - SSE 19 24 10 13 1006.7 1006.6 -
26/01:00am 30.0 - - - - SSE 22 30 12 16 1006.9 1006.8 -
26/12:30am 30.4 - - - - S 28 37 15 20 1007.1 1007.0 -
26/12:00am 30.1 - - - - SW 20 24 11 13 1007.2 1007.1 -
 
Date/Time
WST
Temp
°C
App
Temp
°C
Dew
Point
Rel
Hum
%
Delta-T
°C
Wind Press
QNH
hPa
Press
MSL
hPa
Rain
since 9 am
mm
Dir
 
Spd
km/h
Gust
km/h
Spd
kts
Gust
kts
25/11:30pm 29.9 - - - - SSW 35 43 19 23 1007.6 1007.5 -
25/11:27pm 29.9 - - - - SSW 37 43 20 23 1007.8 1007.7 -
25/11:00pm 30.1 - - - - SW 28 32 15 17 1007.5 1007.4 -
25/10:30pm 30.0 - - - - W 19 24 10 13 1007.1 1007.0 -
25/10:00pm 29.9 - - - - W 20 26 11 14 1006.7 1006.6 -
25/09:30pm 30.1 - - - - WNW 22 28 12 15 1006.3 1006.2 -
25/09:00pm 29.9 - - - - NW 20 26 11 14 1006.0 1005.9 -
25/08:30pm 30.2 - - - - NW 22 30 12 16 1005.6 1005.5 -
25/08:00pm 30.2 - - - - NW 22 28 12 15 1005.4 1005.3 -
25/07:30pm 30.4 - - - - NW 22 28 12 15 1005.3 1005.2 -
25/07:00pm 30.5 - - - - NW 22 28 12 15 1005.0 1004.9 -
25/06:30pm 30.7 - - - - NW 22 28 12 15 1004.8 1004.7 -
25/06:00pm 30.9 - - - - NW 24 30 13 16 1004.4 1004.3 -

Other Formats:

Comma delimited format used in spreadsheet applications
http://www.bom.gov.au/fwo/IDW60801/IDW60801.95202.axf

JavaScript Object Notation format (JSON) in row-major order
http://www.bom.gov.au/fwo/IDW60801/IDW60801.95202.json